Medlin's Ranch, Nevada Weather observations

Data are for observation ending at time listed.
 Day   Time    Ave.   Ave.  Ave.  Vector   Max.   Stn.    Total    Solar   Ave.  
  of    of     Air    Rel.  Wind   Wind    Wind   Baro.  Precip.   Rad.    Soil  
Year   Day     Temp.  Hum.  Speed  Dir.    Gust   Pres.                    Temp. 
2014   (PST)    F      %     mph   deg.    mph     mb.     in.     W/m2     F   
------------------------------------------------------------------------------
 208   13:00   95.4    16    6.9   171     17.9    866     0.00     760    97.6
 208   14:00   91.6    18   15.5   229     30.7    866     0.00     441    99.8
 208   15:00   93.7    18   11.4   211     26.2    866     0.00     783    100.1
 208   16:00   90.7    19   14.0   346     33.2    866     0.00     392    100.4
 208   17:00   87.0    24   13.6   330     24.0    866     0.00     114    100.4
 208   18:00   84.3    25    8.8   316     23.4    867     0.00      51    99.1
 208   19:00   80.9    35   11.2    39     18.9    868     0.00      11    97.4
 208   20:00   78.3    38    7.7   328     14.5    868     0.00       0    95.8
 208   21:00   77.4    39   11.0   348     19.1    868     0.00       0    94.2
 208   22:00   75.2    41    8.3    79     17.9    868     0.00       0    92.7
 208   23:00   75.7    38    4.7    87     10.5    868     0.00       0    91.4
 209    0:00   76.1    37    2.6    25      6.8    868     0.00       0    90.2
 209    1:00   74.8    39    2.5     7      6.7    868     0.00       0    89.2
 209    2:00   73.0    43    3.2   287      6.1    868     0.00       0    88.3
 209    3:00   72.7    48    4.3   153     11.2    869     0.00       0    87.5
 209    4:00   71.5    56    4.4   234      9.1    869     0.00       0    86.7
 209    5:00   70.5    60    3.4   323      6.7    869     0.00       0    86.0
 209    6:00   69.9    63    2.5   200      6.4    869     0.00      49    85.3
 209    7:00   72.1    55    1.7   165      4.0    870     0.00      84    84.7
 209    8:00   73.9    50    3.9   163      7.7    870     0.00     124    84.4
 209    9:00   75.1    49    6.2   160     10.4    870     0.00     228    84.4
 209   10:00   76.2    47    5.9   157     10.1    871     0.00     246    84.8
 209   11:00   76.6    44    4.6   150     10.3    871     0.00     234    85.5
 209   12:00   78.4    40    2.2   116      8.4    870     0.00     266    85.9

Return to Medlin's Ranch, Nevada graphs page.


Western Regional Climate Center,wrcc@dri.edu